Martine P — 2FIL4 — position and weather

sailwx.info

Track history (hours):
 
Tides and Currents Weather Stations Pressure Air Temp Water Temp Dewpoint Dewpoint Depression Visibility Wind Speed Wind Dir Waves Ship Positions

Martine P

Last reported at 2016-Nov-18 11:33 UTC. Time now 2016-Dec-03 13:44 UTC.
Position N 36°02' W 005°14'.
Warning: this ship's position is 15 days out of date.

Length 27 m; draft 3 m.

Type: Tug. MMSI: 235091541.

Date/timePositionNaut miles runAvg speedWind from/ knotsBaromVisibWave heightAir tempDewpointWater temp
2016-Nov-18 11:33N 36°02' W 005°14'7 0.3
2016-Nov-17 12:18N 36°02' W 005°24'5 6.4
2016-Nov-17 11:33N 35°58' W 005°27'260 6.5
2016-Nov-15 19:28N 38°24' W 009°57'  
2016-Nov-11 15:33N 49°56' W 002°59'108 7.7
2016-Nov-11 01:30N 50°25' W 000°17'6 6.7
2016-Nov-11 00:33N 50°28' W 000°07'7 6.7
2016-Nov-10 23:33N 50°29' E 000°03'6 6.1
2016-Nov-10 22:33N 50°31' E 000°12'74 6.8
2016-Nov-10 11:34N 51°14' E 001°48'6 6.2
2016-Nov-10 10:33N 51°20' E 001°53'6 6.4
2016-Nov-10 09:33N 51°25' E 001°58'6 6.5
2016-Nov-10 08:33N 51°31' E 002°04'58 5.8
2016-Nov-09 22:33N 52°04' E 003°20'13 6.6
2016-Nov-09 20:37N 52°04' E 003°41'5 7.3
2016-Nov-09 19:52N 52°03' E 003°49'6 7.9
2016-Nov-09 19:06N 52°01' E 003°59'5 8.5
2016-Nov-09 18:33N 51°59' E 004°06'7 6.9
2016-Nov-09 17:34N 51°55' E 004°15'0 0.0
2016-Nov-09 15:33N 51°55' E 004°15'0 0.0
2016-Nov-09 13:34N 51°55' E 004°15'0 0.0
2016-Nov-09 08:33N 51°55' E 004°15'0 0.0
2016-Nov-09 07:33N 51°55' E 004°15'0 0.0
2016-Nov-09 05:33N 51°55' E 004°15'0 0.0
2016-Nov-09 04:33N 51°55' E 004°15'0 0.0
2016-Nov-09 02:33N 51°55' E 004°15'0 0.0
2016-Nov-08 23:33N 51°55' E 004°15'0 0.0
2016-Nov-08 22:33N 51°55' E 004°15'0 0.0
2016-Nov-08 21:33N 51°55' E 004°15'0 0.0
2016-Nov-08 20:33N 51°55' E 004°15'0 0.0
2016-Nov-08 19:33N 51°55' E 004°15'0 0.0
2016-Nov-08 18:33N 51°55' E 004°15'0 0.0
2016-Nov-08 17:33N 51°55' E 004°15'0 0.0
2016-Nov-08 15:33N 51°55' E 004°15'  
Track history (hours):
 
Tides and Currents Weather Stations Pressure Air Temp Water Temp Dewpoint Dewpoint Depression Visibility Wind Speed Wind Dir Waves Ship Positions

Martine P

Last reported at 2016-Nov-18 11:33 UTC. Time now 2016-Dec-03 13:44 UTC.
Position N 36°02' W 005°14'.
Warning: this ship's position is 15 days out of date.

Length 27 m; draft 3 m.

Type: Tug. MMSI: 235091541.

Date/timePositionNaut miles runAvg speedWind from/ knotsBaromVisibWave heightAir tempDewpointWater temp
2016-Nov-18 11:33N 36°02' W 005°14'7 0.3
2016-Nov-17 12:18N 36°02' W 005°24'5 6.4
2016-Nov-17 11:33N 35°58' W 005°27'260 6.5
2016-Nov-15 19:28N 38°24' W 009°57'  
2016-Nov-11 15:33N 49°56' W 002°59'108 7.7
2016-Nov-11 01:30N 50°25' W 000°17'6 6.7
2016-Nov-11 00:33N 50°28' W 000°07'7 6.7
2016-Nov-10 23:33N 50°29' E 000°03'6 6.1
2016-Nov-10 22:33N 50°31' E 000°12'74 6.8
2016-Nov-10 11:34N 51°14' E 001°48'6 6.2
2016-Nov-10 10:33N 51°20' E 001°53'6 6.4
2016-Nov-10 09:33N 51°25' E 001°58'6 6.5
2016-Nov-10 08:33N 51°31' E 002°04'58 5.8
2016-Nov-09 22:33N 52°04' E 003°20'13 6.6
2016-Nov-09 20:37N 52°04' E 003°41'5 7.3
2016-Nov-09 19:52N 52°03' E 003°49'6 7.9
2016-Nov-09 19:06N 52°01' E 003°59'5 8.5
2016-Nov-09 18:33N 51°59' E 004°06'7 6.9
2016-Nov-09 17:34N 51°55' E 004°15'0 0.0
2016-Nov-09 15:33N 51°55' E 004°15'0 0.0
2016-Nov-09 13:34N 51°55' E 004°15'0 0.0
2016-Nov-09 08:33N 51°55' E 004°15'0 0.0
2016-Nov-09 07:33N 51°55' E 004°15'0 0.0
2016-Nov-09 05:33N 51°55' E 004°15'0 0.0
2016-Nov-09 04:33N 51°55' E 004°15'0 0.0
2016-Nov-09 02:33N 51°55' E 004°15'0 0.0
2016-Nov-08 23:33N 51°55' E 004°15'0 0.0
2016-Nov-08 22:33N 51°55' E 004°15'0 0.0
2016-Nov-08 21:33N 51°55' E 004°15'0 0.0
2016-Nov-08 20:33N 51°55' E 004°15'0 0.0
2016-Nov-08 19:33N 51°55' E 004°15'0 0.0
2016-Nov-08 18:33N 51°55' E 004°15'0 0.0
2016-Nov-08 17:33N 51°55' E 004°15'0 0.0
2016-Nov-08 15:33N 51°55' E 004°15'  

Dump ship's entire track history